createdAt,value
2018-12-12T00:02:12.135Z,74.33
2018-12-12T00:04:41.521Z,74.59
2018-12-12T00:07:11.107Z,74.68
2018-12-12T00:09:40.287Z,74.18
2018-12-12T00:12:09.596Z,74.56
2018-12-12T00:14:38.773Z,74.67
2018-12-12T00:17:08.139Z,74.79
2018-12-12T00:19:37.579Z,74.73
2018-12-12T00:22:06.761Z,74.71
2018-12-12T00:24:36.066Z,74.72
2018-12-12T00:27:05.277Z,75.25
2018-12-12T00:29:34.539Z,75.28
2018-12-12T00:32:03.589Z,75.33
2018-12-12T00:34:32.844Z,75.10
2018-12-12T00:37:02.164Z,74.78
2018-12-12T00:39:31.561Z,74.54
2018-12-12T00:42:00.960Z,74.84
2018-12-12T00:44:30.254Z,74.40
2018-12-12T00:46:59.739Z,74.19
2018-12-12T00:49:28.985Z,74.21
2018-12-12T00:51:58.510Z,74.33
2018-12-12T00:54:28.398Z,74.06
2018-12-12T00:56:57.627Z,74.26
2018-12-12T00:59:27.112Z,74.39
2018-12-12T01:01:56.403Z,74.38
2018-12-12T01:04:25.567Z,74.26
2018-12-12T01:06:54.798Z,74.01
2018-12-12T01:09:23.864Z,74.00
2018-12-12T01:11:57.952Z,74.67
2018-12-12T01:14:27.269Z,74.46
2018-12-12T01:16:56.379Z,74.03
2018-12-12T01:19:25.932Z,74.27
2018-12-12T01:21:55.128Z,74.13
2018-12-12T01:24:24.354Z,74.22
2018-12-12T01:26:53.874Z,74.15
2018-12-12T01:29:23.040Z,74.09
2018-12-12T01:31:52.504Z,73.77
2018-12-12T01:34:21.953Z,74.09
2018-12-12T01:36:52.231Z,73.75
2018-12-12T01:39:22.022Z,74.02
2018-12-12T01:41:51.516Z,73.94
2018-12-12T01:44:21.260Z,73.49
2018-12-12T01:46:50.557Z,73.84
2018-12-12T01:49:20.024Z,73.74
2018-12-12T01:51:49.465Z,73.67
2018-12-12T01:54:18.531Z,73.84
2018-12-12T01:56:47.689Z,73.68
2018-12-12T01:59:16.916Z,73.64
2018-12-12T02:01:46.239Z,73.18
2018-12-12T02:04:15.515Z,73.56
2018-12-12T02:06:44.990Z,73.59
2018-12-12T02:09:14.047Z,73.68
2018-12-12T02:11:43.080Z,73.79
2018-12-12T02:14:12.462Z,73.51
2018-12-12T02:16:41.753Z,74.28
2018-12-12T02:19:10.959Z,74.22
2018-12-12T02:21:40.065Z,73.65
2018-12-12T02:24:09.098Z,73.46
2018-12-12T02:26:38.330Z,73.81
2018-12-12T02:29:07.723Z,73.86
2018-12-12T02:31:36.809Z,73.95
2018-12-12T02:34:05.938Z,73.77
2018-12-12T02:36:35.076Z,73.99
2018-12-12T02:39:05.202Z,74.06
2018-12-12T02:41:34.325Z,73.91
2018-12-12T02:44:03.723Z,73.68
2018-12-12T02:46:33.252Z,73.50
2018-12-12T02:49:02.455Z,73.81
2018-12-12T02:51:31.549Z,74.08
2018-12-12T02:54:00.675Z,73.93
2018-12-12T02:56:29.765Z,73.81
2018-12-12T02:58:59.005Z,74.28
2018-12-12T03:01:29.232Z,73.99
2018-12-12T03:03:58.489Z,74.24
2018-12-12T03:06:27.837Z,74.17
2018-12-12T03:08:56.964Z,73.86
2018-12-12T03:11:26.183Z,74.45
2018-12-12T03:13:55.269Z,74.49
2018-12-12T03:16:24.291Z,74.52
2018-12-12T03:18:54.232Z,74.72
2018-12-12T03:21:23.517Z,74.16
2018-12-12T03:23:52.737Z,74.52
2018-12-12T03:26:21.908Z,74.83
2018-12-12T03:28:51.175Z,74.41
2018-12-12T03:31:20.761Z,74.28
2018-12-12T03:33:50.117Z,74.36
2018-12-12T03:36:19.542Z,74.92
2018-12-12T03:38:48.920Z,74.92
2018-12-12T03:41:18.367Z,74.73
2018-12-12T03:43:47.638Z,74.23
2018-12-12T03:46:17.183Z,74.57
2018-12-12T03:48:46.284Z,74.49
2018-12-12T03:51:15.647Z,74.44
2018-12-12T03:53:44.890Z,74.56
2018-12-12T03:56:14.946Z,74.96
2018-12-12T03:58:44.046Z,74.86
2018-12-12T04:01:13.303Z,74.85
2018-12-12T04:03:42.586Z,74.95
2018-12-12T04:06:11.829Z,74.60
2018-12-12T04:08:40.963Z,74.31
2018-12-12T04:11:10.017Z,73.96
2018-12-12T04:13:39.125Z,74.66
2018-12-12T04:16:08.180Z,74.37
2018-12-12T04:18:37.415Z,74.37
2018-12-12T04:21:06.603Z,74.60
2018-12-12T04:23:36.083Z,74.18
2018-12-12T04:26:05.464Z,74.43
2018-12-12T04:28:34.797Z,74.41
2018-12-12T04:31:04.132Z,74.65
2018-12-12T04:33:33.677Z,74.57
2018-12-12T04:36:03.568Z,74.24
2018-12-12T04:38:32.866Z,74.09
2018-12-12T04:41:02.224Z,74.25
2018-12-12T04:43:31.097Z,74.17
2018-12-12T04:46:00.011Z,74.15
2018-12-12T04:48:29.341Z,74.08
2018-12-12T04:50:58.532Z,73.96
2018-12-12T04:53:27.610Z,73.80
2018-12-12T04:55:57.089Z,73.32
2018-12-12T04:58:26.301Z,73.40
2018-12-12T05:00:55.413Z,73.07
2018-12-12T05:03:24.695Z,73.29
2018-12-12T05:05:54.180Z,73.58
2018-12-12T05:08:23.505Z,73.58
2018-12-12T05:10:52.988Z,73.28
2018-12-12T05:13:22.637Z,73.16
2018-12-12T05:15:51.995Z,72.72
2018-12-12T05:18:21.364Z,72.88
2018-12-12T05:20:50.554Z,72.74
2018-12-12T05:23:19.845Z,72.93
2018-12-12T05:25:49.338Z,73.09
2018-12-12T05:28:18.529Z,73.33
2018-12-12T05:30:47.807Z,73.17
2018-12-12T05:33:17.251Z,73.17
2018-12-12T05:35:46.374Z,73.39
2018-12-12T05:38:15.502Z,73.09
2018-12-12T05:40:44.651Z,73.37
2018-12-12T05:43:13.965Z,73.10
2018-12-12T05:45:43.457Z,73.06
2018-12-12T05:48:12.552Z,73.15
2018-12-12T05:50:41.821Z,73.50
2018-12-12T05:53:10.845Z,73.82
2018-12-12T05:55:40.017Z,73.49
2018-12-12T05:58:09.220Z,73.77
2018-12-12T06:00:38.223Z,73.44
2018-12-12T06:03:07.075Z,73.50
2018-12-12T06:05:36.227Z,74.15
2018-12-12T06:08:06.104Z,74.12
2018-12-12T06:10:35.234Z,73.70
2018-12-12T06:13:04.324Z,73.92
2018-12-12T06:15:33.613Z,73.93
2018-12-12T06:18:02.668Z,73.65
2018-12-12T06:20:32.030Z,74.00
2018-12-12T06:23:04.693Z,73.43
2018-12-12T06:25:33.580Z,73.83
2018-12-12T06:28:03.161Z,73.86
2018-12-12T06:30:32.032Z,73.94
2018-12-12T06:33:00.956Z,73.27
2018-12-12T06:35:30.348Z,73.80
2018-12-12T06:37:59.337Z,73.92
2018-12-12T06:40:28.659Z,73.52
2018-12-12T06:42:57.941Z,73.46
2018-12-12T06:45:27.282Z,73.58
2018-12-12T06:47:56.568Z,73.35
2018-12-12T06:50:25.848Z,72.78
2018-12-12T06:52:55.418Z,72.88
2018-12-12T06:55:24.649Z,72.93
2018-12-12T06:57:54.149Z,72.82
2018-12-12T07:00:23.406Z,72.82
2018-12-12T07:02:52.695Z,72.95
2018-12-12T07:05:24.426Z,72.41
2018-12-12T07:07:55.256Z,72.44
2018-12-12T07:10:24.626Z,72.56
2018-12-12T07:12:55.319Z,72.68
2018-12-12T07:15:24.744Z,72.90
2018-12-12T07:17:54.075Z,72.57
2018-12-12T07:20:23.189Z,72.72
2018-12-12T07:22:52.391Z,72.38
2018-12-12T07:25:21.885Z,72.56
2018-12-12T07:27:51.069Z,72.88
2018-12-12T07:30:20.786Z,73.09
2018-12-12T07:32:50.537Z,72.90
2018-12-12T07:35:19.586Z,72.28
2018-12-12T07:37:48.927Z,72.46
2018-12-12T07:40:18.234Z,72.00
2018-12-12T07:42:47.139Z,72.15
2018-12-12T07:45:16.730Z,72.04
2018-12-12T07:47:45.822Z,72.21
2018-12-12T07:50:15.073Z,72.59
2018-12-12T07:52:44.112Z,72.65
2018-12-12T07:55:13.461Z,72.41
2018-12-12T07:57:42.301Z,72.50
2018-12-12T08:00:11.831Z,72.54
2018-12-12T08:02:41.151Z,72.75
2018-12-12T08:05:10.273Z,72.31
2018-12-12T08:07:39.278Z,72.68
2018-12-12T08:10:08.733Z,72.99
2018-12-12T08:12:38.196Z,72.90
2018-12-12T08:15:07.440Z,72.82
2018-12-12T08:17:36.743Z,72.66
2018-12-12T08:20:06.527Z,72.72
2018-12-12T08:22:35.895Z,72.56
2018-12-12T08:25:05.600Z,73.19
2018-12-12T08:27:34.931Z,72.84
2018-12-12T08:30:04.547Z,72.96
2018-12-12T08:32:33.900Z,72.78
2018-12-12T08:35:03.310Z,73.09
2018-12-12T08:37:32.493Z,73.69
2018-12-12T08:40:01.833Z,73.56
2018-12-12T08:42:31.343Z,73.29
2018-12-12T08:45:00.732Z,73.45
2018-12-12T08:47:29.940Z,73.26
2018-12-12T08:49:59.138Z,73.35
2018-12-12T08:52:28.431Z,73.15
2018-12-12T08:54:57.858Z,73.44
2018-12-12T08:57:27.371Z,73.46
2018-12-12T08:59:56.637Z,73.49
2018-12-12T09:02:26.307Z,72.95
2018-12-12T09:04:55.561Z,72.59
2018-12-12T09:07:24.992Z,72.27
2018-12-12T09:09:54.162Z,73.13
2018-12-12T09:12:23.419Z,72.97
2018-12-12T09:14:52.686Z,72.87
2018-12-12T09:17:22.220Z,73.46
2018-12-12T09:19:51.598Z,72.73
2018-12-12T09:22:20.921Z,72.80
2018-12-12T09:24:51.552Z,72.85
2018-12-12T09:27:21.106Z,72.87
2018-12-12T09:29:50.364Z,73.25
2018-12-12T09:32:19.876Z,73.48
2018-12-12T09:34:49.458Z,73.55
2018-12-12T09:37:18.871Z,72.96
2018-12-12T09:39:48.332Z,73.45
2018-12-12T09:42:17.758Z,73.55
2018-12-12T09:44:47.422Z,73.16
2018-12-12T09:47:16.722Z,73.20
2018-12-12T09:49:46.306Z,72.89
2018-12-12T09:52:15.836Z,73.14
2018-12-12T09:54:45.238Z,73.47
2018-12-12T09:57:14.644Z,73.32
2018-12-12T09:59:44.198Z,72.47
2018-12-12T10:02:13.655Z,72.49
2018-12-12T10:04:42.863Z,72.38
2018-12-12T10:07:12.024Z,72.01
2018-12-12T10:09:41.321Z,71.68
2018-12-12T10:12:10.674Z,71.58
2018-12-12T10:14:39.926Z,71.98
2018-12-12T10:17:09.267Z,71.82
2018-12-12T10:19:38.682Z,71.88
2018-12-12T10:22:08.486Z,72.35
2018-12-12T10:24:37.671Z,72.36
2018-12-12T10:27:06.959Z,72.62
2018-12-12T10:29:36.288Z,72.34
2018-12-12T10:32:06.355Z,72.27
2018-12-12T10:34:35.772Z,72.16
2018-12-12T10:37:04.903Z,71.77
2018-12-12T10:39:34.255Z,71.85
2018-12-12T10:42:03.848Z,71.89
2018-12-12T10:44:33.469Z,71.82
2018-12-12T10:47:03.007Z,71.88
2018-12-12T10:49:32.253Z,72.06
2018-12-12T10:52:01.306Z,71.71
2018-12-12T10:54:30.632Z,71.75
2018-12-12T10:56:59.950Z,72.08
2018-12-12T10:59:29.360Z,71.72
2018-12-12T11:02:04.097Z,71.76
2018-12-12T11:04:33.253Z,72.24
2018-12-12T11:07:02.549Z,71.92
2018-12-12T11:09:31.847Z,72.34
2018-12-12T11:12:01.167Z,72.07
2018-12-12T11:14:30.316Z,71.90
2018-12-12T11:16:59.756Z,71.70
2018-12-12T11:19:28.945Z,72.13
2018-12-12T11:21:58.039Z,72.21
2018-12-12T11:24:27.272Z,72.62
2018-12-12T11:26:56.545Z,72.33
2018-12-12T11:29:25.781Z,72.68
2018-12-12T11:31:54.959Z,71.90
2018-12-12T11:34:24.329Z,72.17
2018-12-12T11:36:53.473Z,72.39
2018-12-12T11:39:23.909Z,72.51
2018-12-12T11:41:53.235Z,72.70
2018-12-12T11:44:22.506Z,72.81
2018-12-12T11:46:52.015Z,73.00
2018-12-12T11:49:22.019Z,72.66
2018-12-12T11:51:51.370Z,73.47
2018-12-12T11:54:21.155Z,73.06
2018-12-12T11:56:50.375Z,72.73
2018-12-12T11:59:19.881Z,72.08
2018-12-12T12:01:49.232Z,72.35
2018-12-12T12:04:18.936Z,72.54
2018-12-12T12:06:48.240Z,72.36
2018-12-12T12:09:17.695Z,72.43
2018-12-12T12:11:47.153Z,73.05
2018-12-12T12:14:16.503Z,72.94
2018-12-12T12:16:45.853Z,72.46
2018-12-12T12:19:15.310Z,72.25
2018-12-12T12:21:44.607Z,72.43
2018-12-12T12:24:13.901Z,72.83
2018-12-12T12:26:43.282Z,72.53
2018-12-12T12:29:12.627Z,72.45
2018-12-12T12:31:42.201Z,72.75
2018-12-12T12:34:11.478Z,72.52
2018-12-12T12:36:40.851Z,72.00
2018-12-12T12:39:10.181Z,72.12
2018-12-12T12:41:39.413Z,72.28
2018-12-12T12:44:08.905Z,72.36
2018-12-12T12:46:38.234Z,72.12
2018-12-12T12:49:07.632Z,72.22
2018-12-12T12:51:36.889Z,72.12
2018-12-12T12:54:06.292Z,72.30
2018-12-12T12:56:35.628Z,72.20
2018-12-12T12:59:05.369Z,72.27
2018-12-12T13:01:34.717Z,72.24
2018-12-12T13:04:09.658Z,72.33
2018-12-12T13:06:36.232Z,72.34
2018-12-12T13:09:07.728Z,72.74
2018-12-12T13:11:37.129Z,72.53
2018-12-12T13:14:06.405Z,72.24
2018-12-12T13:16:35.824Z,72.55
2018-12-12T13:19:05.203Z,72.35
2018-12-12T13:21:34.529Z,72.51
2018-12-12T13:24:03.826Z,72.22
2018-12-12T13:26:33.253Z,72.46
2018-12-12T13:29:02.618Z,72.58
2018-12-12T13:31:32.051Z,72.67
2018-12-12T13:34:01.273Z,72.45
2018-12-12T13:36:30.470Z,72.97
2018-12-12T13:38:59.642Z,72.95
2018-12-12T13:41:29.030Z,72.70
2018-12-12T13:43:58.209Z,72.73
2018-12-12T13:46:27.805Z,72.46
2018-12-12T13:48:57.313Z,72.34
2018-12-12T13:51:26.536Z,72.54
2018-12-12T13:53:55.913Z,72.80
2018-12-12T13:56:25.234Z,72.45
2018-12-12T13:58:54.574Z,72.66
2018-12-12T14:01:24.763Z,72.62
2018-12-12T14:03:54.087Z,72.83
2018-12-12T14:06:23.119Z,73.24
2018-12-12T14:08:52.653Z,73.26
2018-12-12T14:11:22.135Z,73.27
2018-12-12T14:13:51.601Z,73.45
2018-12-12T14:16:20.940Z,72.89
2018-12-12T14:18:51.508Z,74.09
2018-12-12T14:21:20.851Z,73.76
2018-12-12T14:23:50.366Z,73.61
2018-12-12T14:26:19.893Z,73.89
2018-12-12T14:28:49.319Z,73.32
2018-12-12T14:31:18.745Z,73.84
2018-12-12T14:33:48.002Z,73.59
2018-12-12T14:36:17.125Z,73.58
2018-12-12T14:38:46.087Z,73.94
2018-12-12T14:41:14.978Z,74.19
2018-12-12T14:43:44.019Z,74.20
2018-12-12T14:46:13.067Z,74.10
2018-12-12T14:48:41.922Z,74.49
2018-12-12T14:51:10.895Z,74.86
2018-12-12T14:53:39.846Z,74.64
2018-12-12T14:56:08.780Z,73.95
2018-12-12T14:58:38.132Z,74.23
2018-12-12T15:01:07.229Z,74.62
2018-12-12T15:03:36.631Z,75.08
2018-12-12T15:06:06.707Z,74.79
2018-12-12T15:08:35.942Z,74.54
2018-12-12T15:11:05.419Z,74.55
2018-12-12T15:13:35.203Z,74.75
2018-12-12T15:16:05.060Z,74.76
2018-12-12T15:18:34.531Z,75.10
2018-12-12T15:21:03.974Z,75.05
2018-12-12T15:23:33.543Z,74.87
2018-12-12T15:26:02.962Z,75.09
2018-12-12T15:28:32.247Z,75.43
2018-12-12T15:31:01.671Z,75.20
2018-12-12T15:33:31.036Z,75.33
2018-12-12T15:36:00.580Z,75.59
2018-12-12T15:38:29.839Z,76.06
2018-12-12T15:40:59.424Z,75.64
2018-12-12T15:43:28.583Z,75.87
2018-12-12T15:45:57.940Z,75.84
2018-12-12T15:48:26.967Z,75.44
2018-12-12T15:54:28.190Z,75.77
2018-12-12T15:56:57.861Z,75.68
2018-12-12T15:59:27.122Z,75.73
2018-12-12T16:01:56.388Z,76.11
2018-12-12T16:04:25.554Z,75.80
2018-12-12T16:06:54.970Z,76.29
2018-12-12T16:09:24.261Z,75.92
2018-12-12T16:11:53.618Z,75.91
2018-12-12T16:14:23.203Z,76.03
2018-12-12T16:16:52.465Z,76.12
2018-12-12T16:19:23.011Z,76.17
2018-12-12T16:21:52.561Z,76.08
2018-12-12T16:24:21.998Z,76.44
2018-12-12T16:26:51.322Z,76.22
2018-12-12T16:29:21.703Z,75.92
2018-12-12T16:31:50.891Z,75.91
2018-12-12T16:34:20.495Z,76.00
2018-12-12T16:36:49.945Z,75.71
2018-12-12T16:39:19.610Z,76.18
2018-12-12T16:41:48.902Z,75.82
2018-12-12T16:44:17.845Z,76.05
2018-12-12T16:46:46.977Z,76.01
2018-12-12T16:49:16.263Z,76.13
2018-12-12T16:51:45.549Z,76.01
2018-12-12T16:54:15.029Z,76.05
2018-12-12T16:56:44.275Z,76.74
2018-12-12T16:59:13.617Z,76.82
2018-12-12T17:01:43.094Z,76.35
2018-12-12T17:04:12.354Z,76.49
2018-12-12T17:06:41.782Z,76.46
2018-12-12T17:09:11.132Z,76.37
2018-12-12T17:11:40.460Z,76.30
2018-12-12T17:14:09.520Z,76.06
2018-12-12T17:16:38.485Z,76.31
2018-12-12T17:19:07.696Z,76.29
2018-12-12T17:21:37.501Z,76.08
2018-12-12T17:24:06.469Z,76.14
2018-12-12T17:26:35.552Z,76.22
2018-12-12T17:29:04.985Z,76.15
2018-12-12T17:31:33.970Z,75.67
2018-12-12T17:34:03.051Z,75.63
2018-12-12T17:36:32.184Z,75.88
2018-12-12T17:39:01.158Z,76.25
2018-12-12T17:41:30.108Z,76.33
2018-12-12T17:43:59.104Z,75.85
2018-12-12T17:46:28.254Z,75.30
2018-12-12T17:48:57.392Z,75.22
2018-12-12T17:51:26.380Z,75.36
2018-12-12T17:53:55.402Z,74.84
2018-12-12T17:56:24.371Z,75.10
2018-12-12T17:58:53.470Z,75.32
2018-12-12T18:01:22.410Z,75.14
2018-12-12T18:03:51.933Z,75.26
2018-12-12T18:06:21.467Z,75.17
2018-12-12T18:08:50.456Z,75.31
2018-12-12T18:11:19.531Z,75.26
2018-12-12T18:13:48.830Z,75.54
2018-12-12T18:16:17.933Z,75.45
2018-12-12T18:18:46.945Z,75.53
2018-12-12T18:21:16.107Z,75.53
2018-12-12T18:23:45.406Z,75.41
2018-12-12T18:26:14.726Z,75.17
2018-12-12T18:28:43.923Z,74.91
2018-12-12T18:31:13.203Z,75.33
2018-12-12T18:33:42.570Z,74.91
2018-12-12T18:36:11.739Z,75.75
2018-12-12T18:38:40.986Z,75.62
2018-12-12T18:41:10.269Z,75.69
2018-12-12T18:43:39.545Z,75.60
2018-12-12T18:46:09.181Z,75.58
2018-12-12T18:48:38.541Z,75.49
2018-12-12T18:51:07.729Z,75.50
2018-12-12T18:53:36.976Z,75.93
2018-12-12T18:56:06.553Z,75.55
2018-12-12T18:58:35.598Z,75.38
2018-12-12T19:01:04.604Z,75.44
2018-12-12T19:03:33.838Z,74.38
2018-12-12T19:06:03.450Z,74.19
2018-12-12T19:08:32.565Z,73.96
2018-12-12T19:11:01.730Z,74.42
2018-12-12T19:13:30.828Z,74.69
2018-12-12T19:15:59.846Z,74.90
2018-12-12T19:18:28.964Z,74.46
2018-12-12T19:21:00.192Z,74.62
2018-12-12T19:23:30.057Z,74.60
2018-12-12T19:26:00.753Z,74.50
2018-12-12T19:28:30.002Z,74.53
2018-12-12T19:30:59.867Z,74.56
2018-12-12T19:33:29.679Z,74.68
2018-12-12T19:35:59.834Z,74.93
2018-12-12T19:38:29.573Z,75.25
2018-12-12T19:40:58.727Z,75.82
2018-12-12T19:43:27.860Z,75.87
2018-12-12T19:45:57.650Z,76.15
2018-12-12T19:48:29.482Z,76.17
2018-12-12T19:50:59.268Z,76.11
2018-12-12T19:56:21.332Z,75.91
2018-12-12T19:58:50.381Z,76.13
2018-12-12T20:01:19.511Z,75.49
2018-12-12T20:03:48.457Z,74.82
2018-12-12T20:06:17.307Z,75.53
2018-12-12T20:08:46.253Z,75.06
2018-12-12T20:11:15.191Z,75.40
2018-12-12T20:13:44.152Z,75.21
2018-12-12T20:16:13.053Z,74.93
2018-12-12T20:18:41.976Z,74.83
2018-12-12T20:21:11.015Z,74.72
2018-12-12T20:23:40.232Z,74.40
2018-12-12T20:26:09.943Z,74.66
2018-12-12T20:28:38.934Z,74.00
2018-12-12T20:31:07.869Z,73.02
2018-12-12T20:33:36.750Z,73.68
2018-12-12T20:36:05.861Z,73.43
2018-12-12T20:38:34.797Z,72.46
2018-12-12T20:41:03.824Z,72.27
2018-12-12T20:43:32.675Z,72.37
2018-12-12T20:46:01.629Z,72.39
2018-12-12T20:48:30.664Z,72.06
2018-12-12T20:50:59.689Z,72.21
2018-12-12T20:53:28.632Z,71.73
2018-12-12T20:55:57.565Z,72.02
2018-12-12T20:58:26.633Z,72.26
2018-12-12T21:00:55.704Z,71.97
2018-12-12T21:03:24.719Z,71.47
2018-12-12T21:05:54.645Z,71.17
2018-12-12T21:08:23.962Z,70.99
2018-12-12T21:10:52.911Z,70.51
2018-12-12T21:13:22.437Z,70.76
2018-12-12T21:15:51.623Z,70.84
2018-12-12T21:18:21.694Z,70.89
2018-12-12T21:20:50.916Z,70.63
2018-12-12T21:23:20.294Z,70.46
2018-12-12T21:25:51.464Z,70.43
2018-12-12T21:28:21.370Z,70.32
2018-12-12T21:30:50.818Z,70.98
2018-12-12T21:33:19.918Z,70.84
2018-12-12T21:35:48.839Z,70.71
2018-12-12T21:38:17.842Z,70.86
2018-12-12T21:40:47.672Z,70.14
2018-12-12T21:43:17.003Z,69.38
2018-12-12T21:45:46.014Z,69.10
2018-12-12T21:48:15.050Z,70.13
2018-12-12T21:50:44.178Z,69.96
2018-12-12T21:53:13.109Z,69.85
2018-12-12T21:55:42.212Z,69.52
2018-12-12T21:58:11.102Z,69.81
2018-12-12T22:00:40.064Z,69.34
2018-12-12T22:03:09.109Z,69.79
2018-12-12T22:05:38.110Z,69.71
2018-12-12T22:08:06.998Z,69.84
2018-12-12T22:10:36.093Z,69.45
2018-12-12T22:13:05.120Z,69.66
2018-12-12T22:15:33.954Z,69.11
2018-12-12T22:18:03.397Z,69.80
2018-12-12T22:20:32.267Z,69.81
2018-12-12T22:23:01.072Z,69.20
2018-12-12T22:25:30.018Z,69.33
2018-12-12T22:27:58.841Z,68.95
2018-12-12T22:30:27.971Z,69.03
2018-12-12T22:32:56.711Z,69.28
2018-12-12T22:35:25.501Z,69.25
2018-12-12T22:37:54.398Z,69.33
2018-12-12T22:40:23.765Z,69.75
2018-12-12T22:42:52.676Z,69.58
2018-12-12T22:45:21.904Z,69.75
2018-12-12T22:47:51.498Z,69.74
2018-12-12T22:50:20.867Z,69.36
2018-12-12T22:52:49.966Z,69.16
2018-12-12T22:55:18.967Z,69.37
2018-12-12T22:57:47.846Z,69.07
2018-12-12T23:01:21.867Z,69.27
2018-12-12T23:03:50.712Z,69.16
2018-12-12T23:06:20.457Z,68.82
2018-12-12T23:08:49.798Z,69.15
2018-12-12T23:11:18.747Z,69.70
2018-12-12T23:13:47.631Z,69.68
2018-12-12T23:16:16.614Z,68.92
2018-12-12T23:18:46.556Z,69.60
2018-12-12T23:21:15.395Z,69.42
2018-12-12T23:23:44.240Z,69.42
2018-12-12T23:26:13.260Z,68.99
2018-12-12T23:28:42.087Z,69.02
2018-12-12T23:31:10.920Z,69.26
2018-12-12T23:33:39.998Z,69.31
2018-12-12T23:36:08.912Z,69.55
2018-12-12T23:38:37.705Z,68.93
2018-12-12T23:41:06.569Z,68.65
2018-12-12T23:43:35.315Z,68.77
2018-12-12T23:46:05.120Z,69.12
2018-12-12T23:48:33.890Z,69.26
2018-12-12T23:51:02.924Z,69.14
2018-12-12T23:53:31.755Z,68.43
2018-12-12T23:56:00.529Z,68.70
2018-12-12T23:58:29.451Z,69.04
